sensor_id;sensor_type;location;lat;lon;timestamp;pressure;altitude;pressure_sealevel;temperature;humidity
40850;BME280;26571;41.610;25.380;2023-03-22T00:01:22;97901.94;;;13.66;nan
40850;BME280;26571;41.610;25.380;2023-03-22T00:03:48;97898.31;;;13.74;nan
40850;BME280;26571;41.610;25.380;2023-03-22T00:06:14;97896.28;;;13.69;nan
40850;BME280;26571;41.610;25.380;2023-03-22T00:08:40;97897.47;;;13.66;nan
40850;BME280;26571;41.610;25.380;2023-03-22T00:11:06;97893.00;;;13.67;nan
40850;BME280;26571;41.610;25.380;2023-03-22T00:13:32;97897.44;;;13.60;nan
40850;BME280;26571;41.610;25.380;2023-03-22T00:15:58;97895.38;;;13.49;nan
40850;BME280;26571;41.610;25.380;2023-03-22T00:18:23;97892.34;;;13.52;nan
40850;BME280;26571;41.610;25.380;2023-03-22T00:20:51;97899.66;;;13.50;nan
40850;BME280;26571;41.610;25.380;2023-03-22T00:23:16;97895.78;;;13.45;nan
40850;BME280;26571;41.610;25.380;2023-03-22T00:25:42;97899.22;;;13.46;nan
40850;BME280;26571;41.610;25.380;2023-03-22T00:28:08;97898.19;;;13.40;nan
40850;BME280;26571;41.610;25.380;2023-03-22T00:30:33;97903.72;;;13.45;nan
40850;BME280;26571;41.610;25.380;2023-03-22T00:32:58;97901.22;;;13.37;nan
40850;BME280;26571;41.610;25.380;2023-03-22T00:35:23;97895.72;;;13.32;nan
40850;BME280;26571;41.610;25.380;2023-03-22T00:37:49;97897.63;;;13.10;nan
40850;BME280;26571;41.610;25.380;2023-03-22T00:40:14;97895.56;;;12.71;nan
40850;BME280;26571;41.610;25.380;2023-03-22T00:42:40;97903.78;;;12.55;nan
40850;BME280;26571;41.610;25.380;2023-03-22T00:45:06;97909.13;;;12.40;nan
40850;BME280;26571;41.610;25.380;2023-03-22T00:47:32;97895.78;;;12.20;nan
40850;BME280;26571;41.610;25.380;2023-03-22T00:49:57;97895.09;;;11.90;nan
40850;BME280;26571;41.610;25.380;2023-03-22T00:52:23;97889.63;;;11.77;nan
40850;BME280;26571;41.610;25.380;2023-03-22T00:54:48;97897.00;;;11.81;nan
40850;BME280;26571;41.610;25.380;2023-03-22T00:57:13;97894.31;;;11.96;nan
40850;BME280;26571;41.610;25.380;2023-03-22T00:59:39;97903.94;;;12.04;nan
40850;BME280;26571;41.610;25.380;2023-03-22T01:02:06;97893.34;;;12.19;nan
40850;BME280;26571;41.610;25.380;2023-03-22T01:04:32;97898.91;;;12.30;nan
40850;BME280;26571;41.610;25.380;2023-03-22T01:06:59;97896.63;;;12.27;nan
40850;BME280;26571;41.610;25.380;2023-03-22T01:09:26;97907.09;;;12.14;nan
40850;BME280;26571;41.610;25.380;2023-03-22T01:11:58;97898.00;;;12.23;nan
40850;BME280;26571;41.610;25.380;2023-03-22T01:14:24;97899.47;;;12.26;nan
40850;BME280;26571;41.610;25.380;2023-03-22T01:16:50;97895.00;;;12.26;nan
40850;BME280;26571;41.610;25.380;2023-03-22T01:19:15;97890.97;;;12.30;nan
40850;BME280;26571;41.610;25.380;2023-03-22T01:21:40;97886.75;;;12.36;nan
40850;BME280;26571;41.610;25.380;2023-03-22T01:24:06;97888.78;;;12.34;nan
40850;BME280;26571;41.610;25.380;2023-03-22T01:26:32;97894.56;;;12.23;nan
40850;BME280;26571;41.610;25.380;2023-03-22T01:28:57;97886.22;;;12.19;nan
40850;BME280;26571;41.610;25.380;2023-03-22T01:31:22;97880.31;;;12.17;nan
40850;BME280;26571;41.610;25.380;2023-03-22T01:33:47;97887.09;;;12.05;nan
40850;BME280;26571;41.610;25.380;2023-03-22T01:36:13;97881.91;;;11.90;nan
40850;BME280;26571;41.610;25.380;2023-03-22T01:38:38;97887.03;;;11.98;nan
40850;BME280;26571;41.610;25.380;2023-03-22T01:41:03;97881.44;;;12.08;nan
40850;BME280;26571;41.610;25.380;2023-03-22T01:43:28;97878.94;;;12.00;nan
40850;BME280;26571;41.610;25.380;2023-03-22T01:45:54;97873.78;;;11.92;nan
40850;BME280;26571;41.610;25.380;2023-03-22T01:50:47;97876.25;;;11.78;nan
40850;BME280;26571;41.610;25.380;2023-03-22T01:53:15;97874.56;;;11.71;nan
40850;BME280;26571;41.610;25.380;2023-03-22T01:55:43;97878.78;;;11.65;nan
40850;BME280;26571;41.610;25.380;2023-03-22T01:58:09;97879.94;;;11.62;nan
40850;BME280;26571;41.610;25.380;2023-03-22T02:00:35;97874.00;;;11.54;nan
40850;BME280;26571;41.610;25.380;2023-03-22T02:03:00;97881.25;;;11.52;nan
40850;BME280;26571;41.610;25.380;2023-03-22T02:05:25;97855.84;;;11.44;nan
40850;BME280;26571;41.610;25.380;2023-03-22T02:07:51;97872.47;;;11.45;nan
40850;BME280;26571;41.610;25.380;2023-03-22T02:10:18;97879.47;;;11.37;nan
40850;BME280;26571;41.610;25.380;2023-03-22T02:12:48;97881.56;;;11.27;nan
40850;BME280;26571;41.610;25.380;2023-03-22T02:15:24;97882.22;;;11.29;nan
40850;BME280;26571;41.610;25.380;2023-03-22T02:18:29;97882.94;;;11.23;nan
40850;BME280;26571;41.610;25.380;2023-03-22T02:28:23;97867.06;;;11.53;nan
40850;BME280;26571;41.610;25.380;2023-03-22T02:46:42;97848.75;;;11.66;nan
40850;BME280;26571;41.610;25.380;2023-03-22T02:48:46;97853.84;;;11.68;nan
40850;BME280;26571;41.610;25.380;2023-03-22T02:51:18;97864.03;;;11.71;nan
40850;BME280;26571;41.610;25.380;2023-03-22T02:53:52;97867.88;;;11.53;nan
40850;BME280;26571;41.610;25.380;2023-03-22T02:59:05;97882.94;;;11.23;nan
40850;BME280;26571;41.610;25.380;2023-03-22T03:04:07;97874.78;;;10.88;nan
40850;BME280;26571;41.610;25.380;2023-03-22T03:06:34;97876.16;;;10.84;nan
40850;BME280;26571;41.610;25.380;2023-03-22T03:09:03;97879.78;;;10.98;nan
40850;BME280;26571;41.610;25.380;2023-03-22T03:11:29;97884.50;;;11.03;nan
40850;BME280;26571;41.610;25.380;2023-03-22T03:13:55;97885.78;;;11.07;nan
40850;BME280;26571;41.610;25.380;2023-03-22T03:16:20;97885.78;;;11.07;nan
40850;BME280;26571;41.610;25.380;2023-03-22T03:21:19;97897.56;;;11.26;nan
40850;BME280;26571;41.610;25.380;2023-03-22T03:23:48;97905.28;;;11.27;nan
40850;BME280;26571;41.610;25.380;2023-03-22T03:28:54;97903.75;;;11.18;nan
40850;BME280;26571;41.610;25.380;2023-03-22T03:33:56;97909.00;;;11.03;nan
40850;BME280;26571;41.610;25.380;2023-03-22T03:36:22;97912.19;;;10.84;nan
40850;BME280;26571;41.610;25.380;2023-03-22T03:38:49;97905.41;;;10.75;nan
40850;BME280;26571;41.610;25.380;2023-03-22T03:41:17;97902.56;;;10.76;nan
40850;BME280;26571;41.610;25.380;2023-03-22T03:43:44;97911.03;;;10.86;nan
40850;BME280;26571;41.610;25.380;2023-03-22T03:46:10;97910.94;;;10.80;nan
40850;BME280;26571;41.610;25.380;2023-03-22T03:48:36;97907.75;;;10.70;nan
40850;BME280;26571;41.610;25.380;2023-03-22T03:51:02;97904.09;;;10.56;nan
40850;BME280;26571;41.610;25.380;2023-03-22T03:53:28;97912.97;;;10.40;nan
40850;BME280;26571;41.610;25.380;2023-03-22T03:55:53;97913.84;;;10.32;nan
40850;BME280;26571;41.610;25.380;2023-03-22T03:58:19;97911.19;;;10.32;nan
40850;BME280;26571;41.610;25.380;2023-03-22T04:00:44;97913.22;;;10.22;nan
40850;BME280;26571;41.610;25.380;2023-03-22T04:03:10;97913.34;;;10.29;nan
40850;BME280;26571;41.610;25.380;2023-03-22T04:05:36;97921.00;;;10.39;nan
40850;BME280;26571;41.610;25.380;2023-03-22T04:08:01;97921.56;;;10.49;nan
40850;BME280;26571;41.610;25.380;2023-03-22T04:10:27;97929.91;;;10.38;nan
40850;BME280;26571;41.610;25.380;2023-03-22T04:12:52;97925.34;;;10.31;nan
40850;BME280;26571;41.610;25.380;2023-03-22T04:15:17;97929.50;;;10.26;nan
40850;BME280;26571;41.610;25.380;2023-03-22T04:17:43;97934.41;;;10.29;nan
40850;BME280;26571;41.610;25.380;2023-03-22T04:20:08;97935.06;;;10.31;nan
40850;BME280;26571;41.610;25.380;2023-03-22T04:22:35;97929.50;;;10.26;nan
40850;BME280;26571;41.610;25.380;2023-03-22T04:25:02;97940.31;;;10.31;nan
40850;BME280;26571;41.610;25.380;2023-03-22T04:27:28;97944.88;;;10.37;nan
40850;BME280;26571;41.610;25.380;2023-03-22T04:29:53;97946.34;;;10.40;nan
40850;BME280;26571;41.610;25.380;2023-03-22T04:32:19;97953.41;;;10.39;nan
40850;BME280;26571;41.610;25.380;2023-03-22T04:34:50;97957.50;;;10.42;nan
40850;BME280;26571;41.610;25.380;2023-03-22T04:37:15;97954.59;;;10.37;nan
40850;BME280;26571;41.610;25.380;2023-03-22T04:39:41;97959.13;;;10.43;nan
40850;BME280;26571;41.610;25.380;2023-03-22T04:42:06;97964.25;;;10.44;nan
40850;BME280;26571;41.610;25.380;2023-03-22T04:44:32;97973.25;;;10.50;nan
40850;BME280;26571;41.610;25.380;2023-03-22T04:46:57;97965.38;;;10.65;nan
40850;BME280;26571;41.610;25.380;2023-03-22T04:49:22;97978.09;;;10.76;nan
40850;BME280;26571;41.610;25.380;2023-03-22T04:51:48;97964.59;;;10.94;nan
40850;BME280;26571;41.610;25.380;2023-03-22T04:54:13;97968.16;;;11.01;nan
40850;BME280;26571;41.610;25.380;2023-03-22T04:56:38;97973.50;;;11.07;nan
40850;BME280;26571;41.610;25.380;2023-03-22T04:59:04;97971.59;;;11.01;nan
40850;BME280;26571;41.610;25.380;2023-03-22T05:01:29;97977.63;;;11.10;nan
40850;BME280;26571;41.610;25.380;2023-03-22T05:03:54;97977.16;;;11.21;nan
40850;BME280;26571;41.610;25.380;2023-03-22T05:06:19;97982.69;;;11.26;nan
40850;BME280;26571;41.610;25.380;2023-03-22T05:08:45;97990.88;;;11.31;nan
40850;BME280;26571;41.610;25.380;2023-03-22T05:11:14;97992.50;;;11.32;nan
40850;BME280;26571;41.610;25.380;2023-03-22T05:13:40;97999.88;;;11.22;nan
40850;BME280;26571;41.610;25.380;2023-03-22T05:16:06;98002.22;;;11.17;nan
40850;BME280;26571;41.610;25.380;2023-03-22T05:18:32;97998.16;;;11.15;nan
40850;BME280;26571;41.610;25.380;2023-03-22T05:20:58;98012.28;;;10.99;nan
40850;BME280;26571;41.610;25.380;2023-03-22T05:23:23;98012.66;;;10.96;nan
40850;BME280;26571;41.610;25.380;2023-03-22T05:25:49;98010.38;;;11.07;nan
40850;BME280;26571;41.610;25.380;2023-03-22T05:28:16;98006.75;;;11.08;nan
40850;BME280;26571;41.610;25.380;2023-03-22T05:30:43;98007.03;;;11.13;nan
40850;BME280;26571;41.610;25.380;2023-03-22T05:33:09;98012.13;;;11.15;nan
40850;BME280;26571;41.610;25.380;2023-03-22T05:35:35;98023.03;;;11.12;nan
40850;BME280;26571;41.610;25.380;2023-03-22T05:38:00;98019.28;;;11.06;nan
40850;BME280;26571;41.610;25.380;2023-03-22T05:40:26;98023.75;;;11.06;nan
40850;BME280;26571;41.610;25.380;2023-03-22T05:42:52;98017.38;;;11.00;nan
40850;BME280;26571;41.610;25.380;2023-03-22T05:45:18;98028.88;;;10.84;nan
40850;BME280;26571;41.610;25.380;2023-03-22T05:47:43;98028.69;;;10.86;nan
40850;BME280;26571;41.610;25.380;2023-03-22T05:50:09;98028.94;;;10.76;nan
40850;BME280;26571;41.610;25.380;2023-03-22T05:52:35;98031.97;;;10.88;nan
40850;BME280;26571;41.610;25.380;2023-03-22T05:55:00;98040.44;;;10.98;nan
40850;BME280;26571;41.610;25.380;2023-03-22T05:57:26;98042.38;;;11.04;nan
40850;BME280;26571;41.610;25.380;2023-03-22T05:59:53;98040.13;;;11.16;nan
40850;BME280;26571;41.610;25.380;2023-03-22T06:02:19;98048.28;;;11.21;nan
40850;BME280;26571;41.610;25.380;2023-03-22T06:04:45;98053.13;;;11.32;nan
40850;BME280;26571;41.610;25.380;2023-03-22T06:07:11;98050.59;;;11.39;nan
40850;BME280;26571;41.610;25.380;2023-03-22T06:09:36;98059.59;;;11.45;nan
40850;BME280;26571;41.610;25.380;2023-03-22T06:12:01;98064.97;;;11.51;nan
40850;BME280;26571;41.610;25.380;2023-03-22T06:14:27;98063.69;;;11.62;nan
40850;BME280;26571;41.610;25.380;2023-03-22T06:16:52;98069.50;;;11.57;nan
40850;BME280;26571;41.610;25.380;2023-03-22T06:19:17;98072.25;;;11.64;nan
40850;BME280;26571;41.610;25.380;2023-03-22T06:21:43;98071.59;;;11.62;nan
40850;BME280;26571;41.610;25.380;2023-03-22T06:24:08;98077.88;;;11.61;nan
40850;BME280;26571;41.610;25.380;2023-03-22T06:26:33;98077.69;;;11.62;nan
40850;BME280;26571;41.610;25.380;2023-03-22T06:28:59;98083.06;;;11.69;nan
40850;BME280;26571;41.610;25.380;2023-03-22T06:31:24;98082.25;;;11.69;nan
40850;BME280;26571;41.610;25.380;2023-03-22T06:33:50;98085.16;;;11.74;nan
40850;BME280;26571;41.610;25.380;2023-03-22T06:36:15;98081.94;;;11.78;nan
40850;BME280;26571;41.610;25.380;2023-03-22T06:38:40;98082.91;;;11.85;nan
40850;BME280;26571;41.610;25.380;2023-03-22T06:41:06;98087.81;;;11.88;nan
40850;BME280;26571;41.610;25.380;2023-03-22T06:43:31;98092.72;;;11.92;nan
40850;BME280;26571;41.610;25.380;2023-03-22T06:45:56;98087.09;;;11.95;nan
40850;BME280;26571;41.610;25.380;2023-03-22T06:48:21;98091.91;;;11.91;nan
40850;BME280;26571;41.610;25.380;2023-03-22T06:50:47;98096.44;;;11.82;nan
40850;BME280;26571;41.610;25.380;2023-03-22T06:53:12;98099.81;;;11.91;nan
40850;BME280;26571;41.610;25.380;2023-03-22T06:55:38;98101.81;;;11.89;nan
40850;BME280;26571;41.610;25.380;2023-03-22T06:58:04;98101.00;;;11.88;nan
40850;BME280;26571;41.610;25.380;2023-03-22T07:00:29;98104.34;;;11.82;nan
40850;BME280;26571;41.610;25.380;2023-03-22T07:02:57;98104.34;;;11.82;nan
40850;BME280;26571;41.610;25.380;2023-03-22T07:05:22;98107.97;;;11.81;nan
40850;BME280;26571;41.610;25.380;2023-03-22T07:07:48;98106.69;;;11.77;nan
40850;BME280;26571;41.610;25.380;2023-03-22T07:10:13;98108.47;;;11.85;nan
40850;BME280;26571;41.610;25.380;2023-03-22T07:12:38;98117.38;;;11.84;nan
40850;BME280;26571;41.610;25.380;2023-03-22T07:15:04;98110.91;;;11.86;nan
40850;BME280;26571;41.610;25.380;2023-03-22T07:17:29;98124.53;;;11.75;nan
40850;BME280;26571;41.610;25.380;2023-03-22T07:19:54;98125.59;;;11.66;nan
40850;BME280;26571;41.610;25.380;2023-03-22T07:22:20;98129.25;;;11.65;nan
40850;BME280;26571;41.610;25.380;2023-03-22T07:24:47;98130.53;;;11.69;nan
40850;BME280;26571;41.610;25.380;2023-03-22T07:27:12;98135.53;;;11.79;nan
40850;BME280;26571;41.610;25.380;2023-03-22T07:29:37;98131.06;;;11.79;nan
40850;BME280;26571;41.610;25.380;2023-03-22T07:32:03;98133.91;;;11.93;nan
40850;BME280;26571;41.610;25.380;2023-03-22T07:34:28;98132.94;;;11.94;nan
40850;BME280;26571;41.610;25.380;2023-03-22T07:36:53;98127.19;;;12.05;nan
40850;BME280;26571;41.610;25.380;2023-03-22T07:39:21;98126.81;;;12.08;nan
40850;BME280;26571;41.610;25.380;2023-03-22T07:41:48;98138.91;;;12.17;nan
40850;BME280;26571;41.610;25.380;2023-03-22T07:44:14;98139.38;;;12.21;nan
40850;BME280;26571;41.610;25.380;2023-03-22T07:46:39;98134.97;;;12.28;nan
40850;BME280;26571;41.610;25.380;2023-03-22T07:49:04;98143.00;;;12.34;nan
40850;BME280;26571;41.610;25.380;2023-03-22T07:51:30;98144.13;;;12.47;nan
40850;BME280;26571;41.610;25.380;2023-03-22T07:53:55;98137.84;;;12.48;nan
40850;BME280;26571;41.610;25.380;2023-03-22T07:56:20;98134.41;;;12.47;nan
40850;BME280;26571;41.610;25.380;2023-03-22T07:58:45;98134.50;;;12.54;nan
40850;BME280;26571;41.610;25.380;2023-03-22T08:01:10;98139.91;;;12.67;nan
40850;BME280;26571;41.610;25.380;2023-03-22T08:03:36;98138.78;;;12.76;nan
40850;BME280;26571;41.610;25.380;2023-03-22T08:06:02;98132.31;;;12.79;nan
40850;BME280;26571;41.610;25.380;2023-03-22T08:08:31;98134.00;;;12.86;nan
40850;BME280;26571;41.610;25.380;2023-03-22T08:10:56;98137.16;;;12.97;nan
40850;BME280;26571;41.610;25.380;2023-03-22T08:13:21;98141.88;;;13.01;nan
40850;BME280;26571;41.610;25.380;2023-03-22T08:15:46;98144.31;;;13.03;nan
40850;BME280;26571;41.610;25.380;2023-03-22T08:18:12;98140.06;;;13.02;nan
40850;BME280;26571;41.610;25.380;2023-03-22T08:20:37;98179.69;;;13.02;nan
40850;BME280;26571;41.610;25.380;2023-03-22T08:23:02;98145.22;;;13.10;nan
40850;BME280;26571;41.610;25.380;2023-03-22T08:25:28;98154.88;;;13.03;nan
40850;BME280;26571;41.610;25.380;2023-03-22T08:27:54;98149.59;;;13.03;nan
40850;BME280;26571;41.610;25.380;2023-03-22T08:30:19;98145.72;;;12.99;nan
40850;BME280;26571;41.610;25.380;2023-03-22T08:32:46;98150.25;;;13.05;nan
40850;BME280;26571;41.610;25.380;2023-03-22T08:35:11;98149.03;;;13.07;nan
40850;BME280;26571;41.610;25.380;2023-03-22T08:37:36;98149.88;;;13.08;nan
40850;BME280;26571;41.610;25.380;2023-03-22T08:40:02;98146.91;;;13.17;nan
40850;BME280;26571;41.610;25.380;2023-03-22T08:42:30;98148.44;;;13.27;nan
40850;BME280;26571;41.610;25.380;2023-03-22T08:44:56;98150.44;;;13.46;nan
40850;BME280;26571;41.610;25.380;2023-03-22T08:47:21;98151.00;;;13.63;nan
40850;BME280;26571;41.610;25.380;2023-03-22T08:49:46;98151.06;;;13.76;nan
40850;BME280;26571;41.610;25.380;2023-03-22T08:52:11;98151.16;;;13.89;nan
40850;BME280;26571;41.610;25.380;2023-03-22T08:54:37;98158.16;;;14.04;nan
40850;BME280;26571;41.610;25.380;2023-03-22T08:57:02;98157.34;;;14.03;nan
40850;BME280;26571;41.610;25.380;2023-03-22T08:59:28;98155.97;;;14.14;nan
40850;BME280;26571;41.610;25.380;2023-03-22T09:01:53;98149.75;;;14.28;nan
40850;BME280;26571;41.610;25.380;2023-03-22T09:04:18;98135.09;;;14.32;nan
40850;BME280;26571;41.610;25.380;2023-03-22T09:06:44;98148.69;;;14.64;nan
40850;BME280;26571;41.610;25.380;2023-03-22T09:09:10;98159.34;;;14.90;nan
40850;BME280;26571;41.610;25.380;2023-03-22T09:11:36;98143.50;;;15.17;nan
40850;BME280;26571;41.610;25.380;2023-03-22T09:14:04;98141.25;;;15.40;nan
40850;BME280;26571;41.610;25.380;2023-03-22T09:16:29;98138.22;;;15.63;nan
40850;BME280;26571;41.610;25.380;2023-03-22T09:18:55;98141.22;;;15.93;nan
40850;BME280;26571;41.610;25.380;2023-03-22T09:21:21;98139.50;;;16.32;nan
40850;BME280;26571;41.610;25.380;2023-03-22T09:23:46;98135.66;;;16.66;nan
40850;BME280;26571;41.610;25.380;2023-03-22T09:26:11;98143.25;;;16.63;nan
40850;BME280;26571;41.610;25.380;2023-03-22T09:28:37;98145.66;;;16.64;nan
40850;BME280;26571;41.610;25.380;2023-03-22T09:31:03;98143.63;;;16.15;nan
40850;BME280;26571;41.610;25.380;2023-03-22T09:33:29;98147.53;;;16.12;nan
40850;BME280;26571;41.610;25.380;2023-03-22T09:35:54;98144.47;;;16.09;nan
40850;BME280;26571;41.610;25.380;2023-03-22T09:38:21;98141.47;;;15.72;nan
40850;BME280;26571;41.610;25.380;2023-03-22T09:40:51;98139.03;;;15.37;nan
40850;BME280;26571;41.610;25.380;2023-03-22T09:43:17;98139.63;;;15.13;nan
40850;BME280;26571;41.610;25.380;2023-03-22T09:45:45;98139.38;;;14.94;nan
40850;BME280;26571;41.610;25.380;2023-03-22T09:48:19;98135.69;;;14.82;nan
40850;BME280;26571;41.610;25.380;2023-03-22T09:50:46;98143.03;;;14.32;nan
40850;BME280;26571;41.610;25.380;2023-03-22T09:53:13;98133.03;;;14.28;nan
40850;BME280;26571;41.610;25.380;2023-03-22T10:06:17;98141.72;;;14.15;nan
40850;BME280;26571;41.610;25.380;2023-03-22T10:11:35;98141.69;;;13.45;nan
40850;BME280;26571;41.610;25.380;2023-03-22T10:14:48;98146.84;;;13.11;nan
40850;BME280;26571;41.610;25.380;2023-03-22T10:16:51;98137.53;;;13.15;nan
40850;BME280;26571;41.610;25.380;2023-03-22T10:19:20;98148.28;;;13.28;nan
40850;BME280;26571;41.610;25.380;2023-03-22T10:21:47;98141.31;;;13.27;nan
40850;BME280;26571;41.610;25.380;2023-03-22T10:24:15;98153.28;;;13.44;nan
40850;BME280;26571;41.610;25.380;2023-03-22T10:26:44;98146.13;;;13.38;nan
40850;BME280;26571;41.610;25.380;2023-03-22T10:29:11;98143.03;;;13.35;nan
40850;BME280;26571;41.610;25.380;2023-03-22T10:31:37;98145.38;;;13.23;nan
40850;BME280;26571;41.610;25.380;2023-03-22T10:34:09;98149.91;;;13.29;nan
40850;BME280;26571;41.610;25.380;2023-03-22T10:36:35;98146.25;;;13.30;nan
40850;BME280;26571;41.610;25.380;2023-03-22T10:39:13;98134.75;;;13.44;nan
40850;BME280;26571;41.610;25.380;2023-03-22T10:41:43;98135.78;;;13.43;nan
40850;BME280;26571;41.610;25.380;2023-03-22T10:44:09;98140.53;;;13.55;nan
40850;BME280;26571;41.610;25.380;2023-03-22T10:46:38;98136.63;;;13.51;nan
40850;BME280;26571;41.610;25.380;2023-03-22T10:49:05;98127.53;;;13.53;nan
40850;BME280;26571;41.610;25.380;2023-03-22T10:51:33;98137.22;;;13.74;nan
40850;BME280;26571;41.610;25.380;2023-03-22T10:54:00;98126.47;;;13.48;nan
40850;BME280;26571;41.610;25.380;2023-03-22T10:56:27;98130.41;;;13.58;nan
40850;BME280;26571;41.610;25.380;2023-03-22T10:58:53;98129.94;;;13.83;nan
40850;BME280;26571;41.610;25.380;2023-03-22T11:01:28;98133.75;;;13.74;nan
40850;BME280;26571;41.610;25.380;2023-03-22T11:03:56;98123.13;;;13.67;nan
40850;BME280;26571;41.610;25.380;2023-03-22T11:06:29;98131.28;;;13.72;nan
40850;BME280;26571;41.610;25.380;2023-03-22T11:08:58;98120.19;;;13.83;nan
40850;BME280;26571;41.610;25.380;2023-03-22T11:11:28;98119.06;;;14.06;nan
40850;BME280;26571;41.610;25.380;2023-03-22T11:16:42;98110.31;;;14.05;nan
40850;BME280;26571;41.610;25.380;2023-03-22T11:19:09;98110.56;;;14.17;nan
40850;BME280;26571;41.610;25.380;2023-03-22T11:21:36;98114.34;;;14.42;nan
40850;BME280;26571;41.610;25.380;2023-03-22T11:24:05;98115.28;;;14.69;nan
40850;BME280;26571;41.610;25.380;2023-03-22T11:26:35;98093.69;;;14.79;nan
40850;BME280;26571;41.610;25.380;2023-03-22T11:29:04;98118.97;;;15.02;nan
40850;BME280;26571;41.610;25.380;2023-03-22T11:31:48;98111.88;;;15.09;nan
40850;BME280;26571;41.610;25.380;2023-03-22T11:34:15;98112.88;;;15.21;nan
40850;BME280;26571;41.610;25.380;2023-03-22T11:36:42;98107.97;;;15.31;nan
40850;BME280;26571;41.610;25.380;2023-03-22T11:39:08;98107.97;;;15.31;nan
40850;BME280;26571;41.610;25.380;2023-03-22T11:41:36;98106.16;;;15.12;nan
40850;BME280;26571;41.610;25.380;2023-03-22T11:44:10;98103.94;;;15.22;nan
40850;BME280;26571;41.610;25.380;2023-03-22T11:46:37;98094.72;;;15.31;nan
40850;BME280;26571;41.610;25.380;2023-03-22T11:49:06;98097.78;;;15.41;nan
40850;BME280;26571;41.610;25.380;2023-03-22T11:51:34;98093.31;;;15.22;nan
40850;BME280;26571;41.610;25.380;2023-03-22T11:54:33;98102.69;;;14.98;nan
40850;BME280;26571;41.610;25.380;2023-03-22T11:56:52;98093.91;;;15.04;nan
40850;BME280;26571;41.610;25.380;2023-03-22T11:59:23;98096.78;;;15.03;nan
40850;BME280;26571;41.610;25.380;2023-03-22T12:02:08;98098.22;;;15.12;nan
40850;BME280;26571;41.610;25.380;2023-03-22T12:04:38;98095.34;;;15.20;nan
40850;BME280;26571;41.610;25.380;2023-03-22T12:07:05;98092.91;;;15.25;nan
40850;BME280;26571;41.610;25.380;2023-03-22T12:11:59;98099.03;;;15.12;nan
40850;BME280;26571;41.610;25.380;2023-03-22T12:17:07;98092.28;;;15.03;nan
40850;BME280;26571;41.610;25.380;2023-03-22T12:22:07;98094.13;;;15.16;nan
40850;BME280;26571;41.610;25.380;2023-03-22T12:24:33;98093.72;;;15.32;nan
40850;BME280;26571;41.610;25.380;2023-03-22T12:27:20;98085.34;;;15.42;nan
40850;BME280;26571;41.610;25.380;2023-03-22T12:29:53;98093.91;;;15.64;nan
40850;BME280;26571;41.610;25.380;2023-03-22T12:32:23;98089.56;;;15.89;nan
40850;BME280;26571;41.610;25.380;2023-03-22T12:34:50;98085.00;;;16.10;nan
40850;BME280;26571;41.610;25.380;2023-03-22T12:37:20;98090.31;;;16.10;nan
40850;BME280;26571;41.610;25.380;2023-03-22T12:44:41;98097.06;;;16.06;nan
40850;BME280;26571;41.610;25.380;2023-03-22T12:47:15;98087.00;;;16.21;nan
40850;BME280;26571;41.610;25.380;2023-03-22T12:49:45;98082.81;;;16.45;nan
40850;BME280;26571;41.610;25.380;2023-03-22T12:52:14;98082.28;;;16.68;nan
40850;BME280;26571;41.610;25.380;2023-03-22T12:54:41;98083.53;;;16.72;nan
40850;BME280;26571;41.610;25.380;2023-03-22T12:57:07;98083.53;;;16.72;nan
40850;BME280;26571;41.610;25.380;2023-03-22T12:59:32;98077.78;;;16.68;nan
40850;BME280;26571;41.610;25.380;2023-03-22T13:27:53;98083.09;;;15.52;nan
40850;BME280;26571;41.610;25.380;2023-03-22T13:33:32;98090.25;;;15.65;nan
40850;BME280;26571;41.610;25.380;2023-03-22T13:35:44;98093.47;;;15.80;nan
40850;BME280;26571;41.610;25.380;2023-03-22T13:40:48;98099.41;;;15.56;nan
40850;BME280;26571;41.610;25.380;2023-03-22T13:56:31;98100.78;;;14.52;nan
40850;BME280;26571;41.610;25.380;2023-03-22T13:59:01;98099.56;;;14.13;nan
40850;BME280;26571;41.610;25.380;2023-03-22T14:01:28;98098.69;;;14.00;nan
40850;BME280;26571;41.610;25.380;2023-03-22T14:03:58;98097.88;;;13.99;nan
40850;BME280;26571;41.610;25.380;2023-03-22T14:06:32;98096.72;;;14.15;nan
40850;BME280;26571;41.610;25.380;2023-03-22T14:09:00;98100.44;;;14.27;nan
40850;BME280;26571;41.610;25.380;2023-03-22T14:14:10;98102.16;;;14.00;nan
40850;BME280;26571;41.610;25.380;2023-03-22T14:16:39;98100.81;;;14.17;nan
40850;BME280;26571;41.610;25.380;2023-03-22T14:19:06;98105.28;;;14.17;nan
40850;BME280;26571;41.610;25.380;2023-03-22T14:21:40;98105.88;;;14.12;nan
40850;BME280;26571;41.610;25.380;2023-03-22T14:24:06;98107.31;;;14.15;nan
40850;BME280;26571;41.610;25.380;2023-03-22T14:29:19;98101.19;;;14.08;nan
40850;BME280;26571;41.610;25.380;2023-03-22T14:31:43;98107.16;;;14.30;nan
40850;BME280;26571;41.610;25.380;2023-03-22T14:34:13;98107.22;;;14.43;nan
40850;BME280;26571;41.610;25.380;2023-03-22T14:36:41;98111.59;;;14.57;nan
40850;BME280;26571;41.610;25.380;2023-03-22T14:39:14;98099.78;;;14.73;nan
40850;BME280;26571;41.610;25.380;2023-03-22T14:44:25;98112.06;;;14.87;nan
40850;BME280;26571;41.610;25.380;2023-03-22T14:46:58;98107.94;;;14.71;nan
40850;BME280;26571;41.610;25.380;2023-03-22T14:49:25;98111.06;;;14.40;nan
40850;BME280;26571;41.610;25.380;2023-03-22T14:51:51;98115.41;;;14.07;nan
40850;BME280;26571;41.610;25.380;2023-03-22T14:54:17;98114.00;;;13.69;nan
40850;BME280;26571;41.610;25.380;2023-03-22T14:56:43;98112.22;;;13.49;nan
40850;BME280;26571;41.610;25.380;2023-03-22T14:59:15;98109.72;;;13.40;nan
40850;BME280;26571;41.610;25.380;2023-03-22T15:01:48;98116.78;;;13.33;nan
40850;BME280;26571;41.610;25.380;2023-03-22T15:04:15;98110.28;;;13.36;nan
40850;BME280;26571;41.610;25.380;2023-03-22T15:06:42;98117.06;;;13.45;nan
40850;BME280;26571;41.610;25.380;2023-03-22T15:09:09;98110.09;;;13.37;nan